Terminal Aerodrome Forecast
Issued by NWS Lake Charles, LA

Home | Current Version | Previous Version | Text Only | Print | Product List | Glossary On
Versions: 1 2 3 4 5 6 7 8 9 10 11 12 13 14
000
FTUS44 KLCH 301131
TAFARA
TAF
KARA 301131Z 3012/3112 VRB03KT 6SM BR SCT035
      TEMPO 3012/3014 2SM BR
     FM301400 22007KT P6SM BKN035
     FM310500 00000KT 4SM BR SCT007
      TEMPO 3108/3112 1SM BR BKN007=

USA.gov is the U.S. government's official web portal to all federal, state and local government web resources and services.